Time;durP1;ratioP1;P1;durP2;ratioP2;P2;SDS_P1;SDS_P2;PMS_P1;PMS_P2;Temp;Humidity;BMP_temperature;BMP_pressure;BME280_temperature;BME280_humidity;BME280_pressure;Samples;Min_cycle;Max_cycle;Signal;HPM_P1;HPM_P2
2021/11/22 00:01:08;;;;;;;4.60;1.33;;;6.80;99.90;;;;;;5077293;28;20291;-52
2021/11/22 00:03:37;;;;;;;5.57;1.10;;;6.80;99.90;;;;;;5078011;28;20205;-54
2021/11/22 00:06:05;;;;;;;3.00;1.00;;;6.80;99.90;;;;;;5067171;28;20243;-54
2021/11/22 00:08:32;;;;;;;5.77;1.10;;;6.80;99.90;;;;;;5078900;28;20194;-55
2021/11/22 00:10:59;;;;;;;4.57;1.07;;;6.90;99.90;;;;;;5071420;28;20233;-54
2021/11/22 00:13:26;;;;;;;2.97;1.00;;;6.90;99.90;;;;;;5079313;28;20574;-53
2021/11/22 00:15:53;;;;;;;4.17;1.00;;;6.80;99.90;;;;;;5080667;28;20267;-52
2021/11/22 00:18:21;;;;;;;4.77;1.00;;;6.80;99.90;;;;;;5080946;28;20269;-52
2021/11/22 00:20:48;;;;;;;8.47;1.30;;;6.80;99.90;;;;;;5065362;28;20264;-52
2021/11/22 00:23:15;;;;;;;4.23;1.00;;;6.80;99.90;;;;;;5076332;28;20211;-52
2021/11/22 00:25:42;;;;;;;4.10;1.27;;;6.80;99.90;;;;;;5079441;28;20729;-54
2021/11/22 00:28:09;;;;;;;3.00;1.10;;;6.80;99.90;;;;;;5080204;28;20232;-54
2021/11/22 00:30:37;;;;;;;2.63;1.00;;;6.80;99.90;;;;;;5059511;28;20238;-54
2021/11/22 00:33:04;;;;;;;6.87;1.00;;;6.80;99.90;;;;;;5080638;28;20249;-53
2021/11/22 00:35:34;;;;;;;2.40;1.07;;;6.70;99.90;;;;;;5068451;28;20571;-53
2021/11/22 00:38:04;;;;;;;2.90;1.07;;;6.80;99.90;;;;;;5079472;28;20209;-53
2021/11/22 00:40:33;;;;;;;2.17;1.00;;;6.70;99.90;;;;;;5079056;28;20739;-53
2021/11/22 00:43:01;;;;;;;3.17;1.20;;;6.80;99.90;;;;;;5082136;28;20594;-53
2021/11/22 00:45:29;;;;;;;2.87;1.00;;;6.70;99.90;;;;;;5081329;28;20723;-52
2021/11/22 00:47:57;;;;;;;3.40;1.03;;;6.70;99.90;;;;;;5077761;28;20250;-52
2021/11/22 00:50:25;;;;;;;2.33;0.97;;;6.70;99.90;;;;;;5078695;28;20638;-54
2021/11/22 00:52:53;;;;;;;3.47;1.13;;;6.70;99.90;;;;;;5082172;28;20203;-53
2021/11/22 00:55:19;;;;;;;2.57;0.90;;;6.80;99.90;;;;;;5078930;28;20262;-52
2021/11/22 00:57:46;;;;;;;5.70;1.07;;;6.70;99.90;;;;;;5081350;28;20593;-51
2021/11/22 01:00:16;;;;;;;1.87;0.80;;;6.70;99.90;;;;;;5080473;28;20278;-53
2021/11/22 01:02:43;;;;;;;2.83;1.23;;;6.80;99.90;;;;;;5079231;28;20564;-53
2021/11/22 01:05:10;;;;;;;3.23;1.30;;;6.80;99.90;;;;;;5079909;28;20218;-53
2021/11/22 01:07:37;;;;;;;4.43;0.90;;;6.80;99.90;;;;;;5079645;28;20191;-52
2021/11/22 01:10:07;;;;;;;3.93;0.90;;;6.80;99.90;;;;;;5077624;28;20202;-52
2021/11/22 01:12:34;;;;;;;2.70;0.77;;;6.70;99.90;;;;;;5080503;28;20193;-53
2021/11/22 01:15:05;;;;;;;4.80;1.00;;;6.70;99.90;;;;;;5079009;28;20222;-53
2021/11/22 01:17:32;;;;;;;2.47;1.20;;;6.70;99.90;;;;;;5079102;28;20240;-53
2021/11/22 01:19:59;;;;;;;5.20;1.10;;;6.80;99.90;;;;;;5072137;28;20221;-53
2021/11/22 01:22:26;;;;;;;3.17;0.90;;;6.70;99.90;;;;;;5069880;28;20234;-52
2021/11/22 01:24:54;;;;;;;3.60;0.87;;;6.70;99.90;;;;;;5077130;28;20200;-52
2021/11/22 01:27:41;;;;;;;4.57;0.90;;;6.70;99.90;;;;;;5078808;28;20202;-52
2021/11/22 01:30:11;;;;;;;4.27;0.87;;;6.60;99.90;;;;;;5079655;28;20206;-52
2021/11/22 01:32:39;;;;;;;4.57;1.10;;;6.50;99.90;;;;;;5078957;28;20211;-54
2021/11/22 01:35:07;;;;;;;2.70;0.80;;;6.50;99.90;;;;;;5063001;28;20674;-53
2021/11/22 01:37:34;;;;;;;6.23;1.00;;;6.50;99.90;;;;;;5080627;28;20298;-54
2021/11/22 01:40:01;;;;;;;3.33;0.80;;;6.40;99.90;;;;;;5081498;28;20282;-53
2021/11/22 01:42:28;;;;;;;1.80;0.90;;;6.40;99.90;;;;;;5071621;28;20311;-53
2021/11/22 01:44:55;;;;;;;5.13;1.23;;;6.40;99.90;;;;;;5080040;28;20633;-54
2021/11/22 01:47:21;;;;;;;1.80;1.10;;;6.30;99.90;;;;;;5069232;28;20711;-52
2021/11/22 01:49:48;;;;;;;3.73;0.90;;;6.40;99.90;;;;;;5067728;28;20223;-54
2021/11/22 01:52:15;;;;;;;3.50;1.07;;;6.40;99.90;;;;;;5066752;28;20203;-53
2021/11/22 01:54:42;;;;;;;3.97;1.20;;;6.40;99.90;;;;;;5072507;28;20226;-52
2021/11/22 01:57:09;;;;;;;2.77;1.00;;;6.30;99.90;;;;;;5079200;28;20643;-54
2021/11/22 01:59:36;;;;;;;2.13;0.83;;;6.30;99.90;;;;;;5078676;28;20349;-53
2021/11/22 02:02:04;;;;;;;1.97;1.00;;;6.30;99.90;;;;;;5079738;28;20203;-52
2021/11/22 02:04:31;;;;;;;2.10;0.80;;;6.30;99.90;;;;;;5083221;28;20191;-52
2021/11/22 02:06:58;;;;;;;2.30;0.80;;;6.20;99.90;;;;;;5083045;28;20221;-54
2021/11/22 02:09:26;;;;;;;4.30;1.00;;;6.20;99.90;;;;;;5083134;28;20200;-53
2021/11/22 02:11:55;;;;;;;2.47;1.00;;;6.30;99.90;;;;;;5085646;28;20229;-54
2021/11/22 02:14:22;;;;;;;2.07;0.97;;;6.30;99.90;;;;;;5084829;28;20493;-53
2021/11/22 02:16:49;;;;;;;2.10;0.93;;;6.20;99.90;;;;;;5082416;28;20243;-53
2021/11/22 02:19:16;;;;;;;5.13;1.20;;;6.30;99.90;;;;;;5082066;28;20230;-53
2021/11/22 02:21:43;;;;;;;4.23;1.10;;;6.30;99.90;;;;;;5065169;28;20207;-54
2021/11/22 02:24:10;;;;;;;2.10;0.90;;;6.30;99.90;;;;;;5084222;28;20202;-53
2021/11/22 02:26:37;;;;;;;3.23;0.90;;;6.30;99.90;;;;;;5080609;28;20315;-55
2021/11/22 02:29:05;;;;;;;4.10;1.20;;;6.30;99.90;;;;;;5084765;28;20244;-52
2021/11/22 02:31:32;;;;;;;2.20;0.90;;;6.30;99.90;;;;;;5082243;28;20199;-55
2021/11/22 02:33:59;;;;;;;4.00;0.93;;;6.30;99.90;;;;;;5074325;28;20224;-53
2021/11/22 02:36:28;;;;;;;5.93;1.60;;;6.30;99.90;;;;;;5079774;28;20230;-52
2021/11/22 02:38:55;;;;;;;2.47;0.90;;;6.40;99.90;;;;;;5080292;28;20226;-54
2021/11/22 02:41:22;;;;;;;1.90;0.83;;;6.40;99.90;;;;;;5071090;28;20239;-52
2021/11/22 02:43:48;;;;;;;1.40;0.77;;;6.40;99.90;;;;;;5084688;28;20206;-53
2021/11/22 02:46:16;;;;;;;4.80;1.10;;;6.50;99.90;;;;;;5083590;28;20219;-52
2021/11/22 02:48:43;;;;;;;3.20;1.13;;;6.30;99.90;;;;;;5055723;28;20288;-54
2021/11/22 02:51:10;;;;;;;2.93;1.10;;;6.20;99.90;;;;;;5076016;28;20315;-52
2021/11/22 02:53:38;;;;;;;3.13;1.10;;;6.30;99.90;;;;;;5080953;28;20311;-53
2021/11/22 02:56:08;;;;;;;3.67;0.90;;;6.20;99.90;;;;;;5071091;28;20228;-53
2021/11/22 02:58:38;;;;;;;1.27;0.70;;;6.10;99.90;;;;;;5081383;28;20210;-53
2021/11/22 03:01:08;;;;;;;3.40;0.90;;;6.10;99.90;;;;;;5082405;28;20222;-54
2021/11/22 03:03:35;;;;;;;1.70;0.80;;;6.10;99.90;;;;;;5081686;28;20292;-53
2021/11/22 03:06:12;;;;;;;2.80;1.60;;;6.10;99.90;;;;;;5083220;28;20294;-53
2021/11/22 03:08:40;;;;;;;3.90;1.07;;;6.10;99.90;;;;;;5082670;28;20290;-53
2021/11/22 03:11:09;;;;;;;3.23;1.00;;;6.10;99.90;;;;;;5081301;28;20761;-53
2021/11/22 03:13:38;;;;;;;4.07;0.83;;;6.00;99.90;;;;;;5082436;28;20214;-53
2021/11/22 03:16:05;;;;;;;2.17;1.00;;;6.00;99.90;;;;;;5082890;28;20199;-54
2021/11/22 03:18:32;;;;;;;1.90;1.10;;;6.00;99.90;;;;;;5081420;28;20668;-53
2021/11/22 03:21:00;;;;;;;3.70;1.20;;;6.10;99.90;;;;;;5075637;28;20257;-52
2021/11/22 03:23:28;;;;;;;2.70;1.20;;;6.00;99.90;;;;;;5079952;28;20732;-53
2021/11/22 03:25:55;;;;;;;2.63;1.10;;;6.00;99.90;;;;;;5081529;28;20230;-51
2021/11/22 03:28:24;;;;;;;3.23;1.03;;;6.00;99.90;;;;;;5081579;28;20195;-53
2021/11/22 03:30:51;;;;;;;2.27;1.03;;;6.00;99.90;;;;;;5080957;28;20202;-53
2021/11/22 03:33:18;;;;;;;2.83;1.27;;;6.00;99.90;;;;;;5073651;28;20201;-53
2021/11/22 03:35:47;;;;;;;4.80;1.00;;;6.00;99.90;;;;;;5063331;28;20606;-52
2021/11/22 03:38:15;;;;;;;3.00;1.00;;;6.00;99.90;;;;;;5078081;28;20200;-53
2021/11/22 03:40:44;;;;;;;3.10;1.10;;;5.90;99.90;;;;;;5081255;28;20223;-53
2021/11/22 03:43:14;;;;;;;3.87;0.97;;;6.00;99.90;;;;;;5081503;28;20194;-52
2021/11/22 03:45:48;;;;;;;3.53;1.47;;;5.90;99.90;;;;;;5076277;28;20273;-54
2021/11/22 03:48:15;;;;;;;4.50;1.03;;;5.90;99.90;;;;;;5081165;28;20195;-54
2021/11/22 03:50:42;;;;;;;2.57;0.90;;;6.00;99.90;;;;;;5080348;28;20699;-53
2021/11/22 03:53:09;;;;;;;2.20;0.97;;;6.00;99.90;;;;;;5080879;28;20785;-52
2021/11/22 03:55:36;;;;;;;1.83;1.10;;;6.10;99.90;;;;;;5080722;28;20237;-53
2021/11/22 03:58:04;;;;;;;3.83;1.00;;;6.00;99.90;;;;;;5080689;28;20319;-53
2021/11/22 04:00:30;;;;;;;4.23;2.20;;;6.00;99.90;;;;;;5063726;28;20717;-54
2021/11/22 04:02:58;;;;;;;3.70;1.50;;;6.10;99.90;;;;;;5079049;28;20311;-53
2021/11/22 04:05:25;;;;;;;4.70;1.20;;;6.00;99.90;;;;;;5080059;28;20217;-53
2021/11/22 04:07:52;;;;;;;2.97;1.03;;;6.00;99.90;;;;;;5079603;28;20218;-54
2021/11/22 04:10:19;;;;;;;4.90;1.07;;;6.00;99.90;;;;;;5072348;28;20199;-52
2021/11/22 04:12:45;;;;;;;5.30;1.30;;;6.00;99.90;;;;;;5080441;28;20303;-54
2021/11/22 04:15:12;;;;;;;8.27;1.10;;;6.00;99.90;;;;;;5080759;28;20225;-54
2021/11/22 04:17:41;;;;;;;3.07;1.10;;;6.00;99.90;;;;;;5077793;28;20232;-53
2021/11/22 04:20:09;;;;;;;3.97;1.37;;;5.90;99.90;;;;;;5082052;28;20223;-53
2021/11/22 04:22:36;;;;;;;5.10;1.27;;;6.00;99.90;;;;;;5075624;28;20209;-53
2021/11/22 04:25:05;;;;;;;4.23;1.47;;;5.90;99.90;;;;;;5081023;28;20204;-52
2021/11/22 04:27:33;;;;;;;2.33;0.97;;;5.90;99.90;;;;;;5079173;28;20293;-54
2021/11/22 04:30:00;;;;;;;2.10;1.20;;;5.80;99.90;;;;;;5080497;28;20206;-54
2021/11/22 04:32:27;;;;;;;5.47;1.33;;;5.80;99.90;;;;;;5079418;28;22266;-53
2021/11/22 04:34:53;;;;;;;3.93;1.20;;;5.70;99.90;;;;;;5079398;28;20195;-52
2021/11/22 04:37:25;;;;;;;6.20;1.30;;;5.70;99.90;;;;;;5081618;28;20203;-52
2021/11/22 04:39:52;;;;;;;4.03;1.30;;;5.70;99.90;;;;;;5079625;28;20647;-52
2021/11/22 04:42:19;;;;;;;3.63;1.10;;;5.60;99.90;;;;;;5079877;28;20681;-52
2021/11/22 04:44:46;;;;;;;3.87;1.13;;;5.70;99.90;;;;;;5082994;28;20211;-52
2021/11/22 04:47:13;;;;;;;2.53;1.20;;;5.70;99.90;;;;;;5080344;28;20216;-54
2021/11/22 04:49:40;;;;;;;3.30;0.87;;;5.60;99.90;;;;;;5063840;28;20252;-54
2021/11/22 04:52:08;;;;;;;8.13;1.27;;;5.60;99.90;;;;;;5080544;28;20199;-53
2021/11/22 04:54:37;;;;;;;3.70;1.17;;;5.60;99.90;;;;;;5079318;28;20278;-52
2021/11/22 04:57:04;;;;;;;2.77;0.87;;;5.50;99.90;;;;;;5082286;28;20234;-53
2021/11/22 04:59:32;;;;;;;3.03;1.00;;;5.50;99.90;;;;;;5080608;28;20202;-53
2021/11/22 05:01:59;;;;;;;3.47;1.00;;;5.50;99.90;;;;;;5080397;28;20207;-53
2021/11/22 05:04:26;;;;;;;2.70;1.00;;;5.40;99.90;;;;;;5081365;28;20277;-53
2021/11/22 05:06:53;;;;;;;4.83;1.30;;;5.40;99.90;;;;;;5078312;28;20243;-54
2021/11/22 05:09:20;;;;;;;6.03;1.20;;;5.50;99.90;;;;;;5079705;28;20242;-52
2021/11/22 05:11:49;;;;;;;2.30;0.87;;;5.50;99.90;;;;;;5078111;28;20238;-53
2021/11/22 05:14:16;;;;;;;4.30;1.17;;;5.50;99.90;;;;;;5080536;28;20296;-53
2021/11/22 05:16:44;;;;;;;2.37;1.10;;;5.50;99.90;;;;;;5066657;28;20210;-52
2021/11/22 05:19:12;;;;;;;5.07;1.20;;;5.60;99.90;;;;;;5075762;28;20274;-52
2021/11/22 05:21:39;;;;;;;4.60;1.20;;;5.60;99.90;;;;;;5070936;28;20237;-52
2021/11/22 05:24:07;;;;;;;6.00;1.33;;;5.50;99.90;;;;;;5080195;28;20721;-52
2021/11/22 05:26:34;;;;;;;5.33;1.13;;;5.40;99.90;;;;;;5068726;28;20358;-52
2021/11/22 05:29:04;;;;;;;4.60;1.27;;;5.40;99.90;;;;;;5079802;28;20652;-54
2021/11/22 05:31:32;;;;;;;1.97;1.00;;;5.40;99.90;;;;;;5070328;28;20204;-53
2021/11/22 05:33:59;;;;;;;4.93;0.90;;;5.40;99.90;;;;;;5064850;28;20203;-54
2021/11/22 05:36:26;;;;;;;3.27;0.87;;;5.40;99.90;;;;;;5079004;28;20272;-52
2021/11/22 05:38:53;;;;;;;3.37;0.90;;;5.40;99.90;;;;;;5079660;28;20202;-54
2021/11/22 05:41:20;;;;;;;2.77;0.90;;;5.40;99.90;;;;;;5079949;28;20262;-52
2021/11/22 05:43:46;;;;;;;3.20;1.13;;;5.40;99.90;;;;;;5061234;28;20270;-51
2021/11/22 05:46:13;;;;;;;2.60;0.93;;;5.40;99.90;;;;;;5077969;28;20280;-55
2021/11/22 05:48:40;;;;;;;4.00;1.40;;;5.50;99.90;;;;;;5079201;28;20234;-53
2021/11/22 05:51:10;;;;;;;3.00;1.20;;;5.40;99.90;;;;;;5061939;28;20278;-53
2021/11/22 05:53:38;;;;;;;4.10;1.10;;;5.40;99.90;;;;;;5079698;28;20590;-54
2021/11/22 05:56:05;;;;;;;1.97;1.47;;;5.40;99.90;;;;;;5080141;28;20637;-52
2021/11/22 05:58:33;;;;;;;2.63;0.70;;;5.20;99.90;;;;;;5077273;28;20211;-54
2021/11/22 06:01:02;;;;;;;3.23;1.00;;;5.10;99.90;;;;;;5073501;28;20255;-53
2021/11/22 06:03:30;;;;;;;3.63;0.97;;;5.10;99.90;;;;;;5070408;28;21065;-53
2021/11/22 06:05:57;;;;;;;2.13;1.13;;;5.10;99.90;;;;;;5079905;28;20230;-53
2021/11/22 06:08:25;;;;;;;8.10;1.10;;;5.10;99.90;;;;;;5077044;28;20298;-53
2021/11/22 06:10:52;;;;;;;3.90;1.23;;;5.10;99.90;;;;;;5076684;28;20234;-54
2021/11/22 06:13:20;;;;;;;1.50;1.03;;;5.20;99.90;;;;;;5078210;28;20226;-53
2021/11/22 06:15:47;;;;;;;2.43;1.20;;;5.10;99.90;;;;;;5070846;28;20190;-53
2021/11/22 06:18:15;;;;;;;2.20;0.90;;;5.10;99.90;;;;;;5069815;28;20315;-54
2021/11/22 06:20:42;;;;;;;4.60;2.13;;;5.00;99.90;;;;;;5075556;28;20214;-53
2021/11/22 06:23:10;;;;;;;4.00;1.20;;;5.00;99.90;;;;;;5074212;28;20202;-53
2021/11/22 06:25:37;;;;;;;5.07;1.10;;;5.10;99.90;;;;;;5079926;28;20645;-52
2021/11/22 06:28:04;;;;;;;1.73;1.00;;;5.10;99.90;;;;;;5080625;28;20208;-53
2021/11/22 06:30:31;;;;;;;3.20;0.80;;;5.10;99.90;;;;;;5079166;28;20234;-53
2021/11/22 06:32:58;;;;;;;2.07;1.00;;;5.10;99.90;;;;;;5061773;28;20251;-54
2021/11/22 06:35:25;;;;;;;4.53;1.10;;;5.00;99.90;;;;;;5078199;28;20219;-53
2021/11/22 06:37:52;;;;;;;5.53;2.13;;;5.00;99.90;;;;;;5077480;28;20293;-54
2021/11/22 06:40:19;;;;;;;3.13;1.13;;;4.90;99.90;;;;;;5080988;28;20242;-54
2021/11/22 06:42:47;;;;;;;5.37;0.97;;;5.00;99.90;;;;;;5069255;28;20202;-53
2021/11/22 06:45:14;;;;;;;4.00;1.07;;;5.00;99.90;;;;;;5071554;28;20283;-53
2021/11/22 06:47:41;;;;;;;3.57;1.00;;;5.00;99.90;;;;;;5069443;28;20222;-53
2021/11/22 06:50:09;;;;;;;1.50;1.17;;;5.10;99.90;;;;;;5083538;28;20211;-54
2021/11/22 06:52:36;;;;;;;1.93;1.20;;;5.00;99.90;;;;;;5081542;28;20581;-53
2021/11/22 06:55:04;;;;;;;1.80;1.10;;;5.00;99.90;;;;;;5076639;28;20241;-54
2021/11/22 06:57:31;;;;;;;1.67;1.00;;;5.00;99.90;;;;;;5071728;28;20207;-54
2021/11/22 06:59:58;;;;;;;3.70;0.90;;;5.00;99.90;;;;;;5082181;28;20585;-54
2021/11/22 07:02:25;;;;;;;7.43;1.63;;;5.00;99.90;;;;;;5077095;28;20195;-53
2021/11/22 07:04:52;;;;;;;2.13;1.10;;;5.00;99.90;;;;;;5082011;28;20227;-53
2021/11/22 07:07:19;;;;;;;2.27;1.20;;;5.00;99.90;;;;;;5081901;28;20203;-53
2021/11/22 07:09:47;;;;;;;4.00;1.17;;;5.10;99.90;;;;;;5082090;28;20623;-53
2021/11/22 07:12:14;;;;;;;2.20;1.13;;;5.10;99.90;;;;;;5081596;28;20676;-53
2021/11/22 07:14:42;;;;;;;2.67;1.00;;;5.00;99.90;;;;;;5077656;28;20595;-53
2021/11/22 07:17:11;;;;;;;1.87;1.00;;;5.00;99.90;;;;;;5080629;28;20241;-54
2021/11/22 07:19:38;;;;;;;3.53;0.97;;;5.00;99.90;;;;;;5079354;28;20223;-52
2021/11/22 07:22:09;;;;;;;1.40;1.27;;;5.00;99.90;;;;;;5050983;28;20323;-53
2021/11/22 07:24:39;;;;;;;3.20;1.27;;;5.00;99.90;;;;;;5077898;28;20213;-53
2021/11/22 07:27:08;;;;;;;3.40;0.97;;;5.00;99.90;;;;;;5066715;28;20310;-54
2021/11/22 07:29:36;;;;;;;2.97;1.13;;;5.00;99.90;;;;;;5076318;28;20298;-53
2021/11/22 07:32:03;;;;;;;1.83;1.20;;;5.20;99.90;;;;;;5078023;28;20285;-54
2021/11/22 07:34:30;;;;;;;1.70;0.90;;;5.20;99.90;;;;;;5082438;28;20207;-53
2021/11/22 07:36:57;;;;;;;3.40;1.40;;;5.10;99.90;;;;;;5081264;28;20302;-54
2021/11/22 07:39:24;;;;;;;3.17;1.03;;;5.10;99.90;;;;;;5075819;28;20561;-54
2021/11/22 07:41:53;;;;;;;4.83;1.20;;;5.20;99.90;;;;;;5080774;28;20198;-53
2021/11/22 07:44:20;;;;;;;2.63;1.20;;;5.20;99.90;;;;;;5070770;28;20667;-54
2021/11/22 07:46:47;;;;;;;3.33;1.20;;;5.30;99.90;;;;;;5079671;28;20223;-53
2021/11/22 07:49:14;;;;;;;1.67;0.93;;;5.30;99.90;;;;;;5080291;28;20215;-53
2021/11/22 07:51:41;;;;;;;3.60;0.93;;;5.40;99.90;;;;;;5081878;28;21074;-54
2021/11/22 07:54:08;;;;;;;2.40;0.97;;;5.40;99.90;;;;;;5077301;28;20259;-54
2021/11/22 07:56:35;;;;;;;2.57;1.27;;;5.50;99.90;;;;;;5078859;28;20269;-54
2021/11/22 07:59:02;;;;;;;3.93;1.63;;;5.60;99.90;;;;;;5073675;28;20272;-53
2021/11/22 08:01:29;;;;;;;2.07;0.87;;;5.60;99.90;;;;;;5076394;28;20620;-52
2021/11/22 08:03:56;;;;;;;5.43;1.30;;;5.70;99.90;;;;;;5073076;28;20234;-55
2021/11/22 08:06:24;;;;;;;1.53;0.90;;;5.70;99.90;;;;;;5079921;28;20625;-55
2021/11/22 08:08:52;;;;;;;2.87;1.00;;;5.80;99.90;;;;;;5077874;28;20303;-53
2021/11/22 08:13:53;;;;;;;2.50;1.20;;;6.00;99.90;;;;;;5078952;28;20271;-53
2021/11/22 08:16:20;;;;;;;3.33;1.37;;;5.90;99.90;;;;;;5079197;28;20199;-52
2021/11/22 08:18:49;;;;;;;4.20;1.80;;;6.00;99.90;;;;;;5078932;28;20223;-54
2021/11/22 08:21:16;;;;;;;3.13;1.00;;;6.00;99.90;;;;;;5068040;28;20275;-53
2021/11/22 08:23:43;;;;;;;2.53;1.20;;;6.00;99.90;;;;;;5079043;28;20203;-53
2021/11/22 08:26:09;;;;;;;2.53;1.10;;;6.00;99.90;;;;;;5078718;28;20199;-54
2021/11/22 08:28:36;;;;;;;3.60;1.30;;;6.00;99.90;;;;;;5079798;28;20219;-60
2021/11/22 08:31:04;;;;;;;1.83;1.00;;;6.10;99.90;;;;;;5061699;28;20253;-54
2021/11/22 08:33:31;;;;;;;2.30;0.97;;;6.20;99.90;;;;;;5080545;28;20196;-52
2021/11/22 08:35:58;;;;;;;2.43;1.00;;;6.20;99.90;;;;;;5080415;28;20256;-60
2021/11/22 08:38:24;;;;;;;6.07;1.47;;;6.40;99.90;;;;;;5078674;28;20290;-60
2021/11/22 08:40:51;;;;;;;3.57;0.90;;;6.50;99.90;;;;;;5078449;28;20212;-59
2021/11/22 08:43:24;;;;;;;3.07;1.23;;;6.40;99.90;;;;;;5079702;28;20227;-58
2021/11/22 08:45:51;;;;;;;3.37;0.90;;;6.30;99.90;;;;;;5079092;28;20202;-59
2021/11/22 08:48:20;;;;;;;4.53;1.07;;;6.30;99.90;;;;;;5076456;28;20297;-58
2021/11/22 08:50:47;;;;;;;3.67;1.10;;;6.20;99.90;;;;;;5076284;28;20203;-59
2021/11/22 08:53:14;;;;;;;2.63;0.97;;;6.40;99.90;;;;;;5076710;28;20202;-59
2021/11/22 08:55:41;;;;;;;2.43;1.50;;;6.50;99.90;;;;;;5075058;28;20198;-61
2021/11/22 08:58:08;;;;;;;4.53;1.77;;;6.50;99.90;;;;;;5078421;28;20211;-59
2021/11/22 09:00:40;;;;;;;2.43;1.00;;;6.60;99.90;;;;;;5075589;28;20698;-59
2021/11/22 09:03:07;;;;;;;4.77;1.30;;;6.50;99.90;;;;;;5077144;28;21603;-59
2021/11/22 09:05:34;;;;;;;3.93;1.30;;;6.50;99.90;;;;;;5077511;28;20880;-59
2021/11/22 09:08:02;;;;;;;5.70;1.40;;;6.80;99.90;;;;;;5066860;28;20216;-59
2021/11/22 09:10:29;;;;;;;5.07;1.60;;;6.70;99.90;;;;;;5065599;28;20191;-58
2021/11/22 09:12:56;;;;;;;3.87;1.30;;;6.90;99.90;;;;;;5060962;28;20273;-58
2021/11/22 09:15:25;;;;;;;3.60;1.40;;;7.10;99.90;;;;;;5060785;28;20202;-60
2021/11/22 09:17:55;;;;;;;3.30;1.13;;;7.80;99.90;;;;;;5079173;28;20208;-58
2021/11/22 09:20:23;;;;;;;2.17;0.97;;;8.00;99.90;;;;;;5075389;28;20302;-58
2021/11/22 09:22:56;;;;;;;4.90;1.73;;;8.40;99.90;;;;;;5070558;28;20535;-60
2021/11/22 09:25:23;;;;;;;4.53;1.13;;;8.30;99.90;;;;;;5077667;28;20211;-59
2021/11/22 09:27:50;;;;;;;3.27;1.37;;;8.60;99.90;;;;;;5079243;28;20234;-60
2021/11/22 09:30:19;;;;;;;1.57;1.30;;;8.70;99.90;;;;;;5067184;28;20197;-58
2021/11/22 09:32:46;;;;;;;3.17;1.03;;;8.70;99.90;;;;;;5069302;28;20300;-58
2021/11/22 09:35:13;;;;;;;6.30;1.40;;;8.90;99.90;;;;;;5077037;28;20672;-60
2021/11/22 09:37:40;;;;;;;3.73;1.43;;;9.00;99.90;;;;;;5078020;28;20258;-59
2021/11/22 09:40:09;;;;;;;4.53;1.70;;;9.00;99.90;;;;;;5074958;28;20200;-59
2021/11/22 09:42:36;;;;;;;3.87;1.47;;;9.10;99.90;;;;;;5075026;28;20238;-60
2021/11/22 09:45:04;;;;;;;4.93;1.30;;;9.40;99.90;;;;;;5058146;28;20196;-60
2021/11/22 09:47:32;;;;;;;4.67;1.40;;;9.20;99.90;;;;;;5070782;28;20192;-59
2021/11/22 09:50:02;;;;;;;2.13;1.30;;;9.30;99.90;;;;;;5075744;28;20245;-57
2021/11/22 09:52:30;;;;;;;2.30;1.10;;;9.50;99.90;;;;;;5077298;28;20196;-59
2021/11/22 09:54:57;;;;;;;3.57;1.40;;;9.30;99.90;;;;;;5071926;28;20257;-60
2021/11/22 09:57:25;;;;;;;2.03;0.90;;;9.30;99.90;;;;;;5077506;28;20200;-59
2021/11/22 09:59:52;;;;;;;2.47;1.03;;;9.30;99.90;;;;;;5064145;28;20202;-60
2021/11/22 10:02:19;;;;;;;3.03;1.10;;;9.30;99.90;;;;;;5075553;28;20240;-58
2021/11/22 10:04:46;;;;;;;2.00;1.00;;;9.50;99.90;;;;;;5070004;28;20226;-60
2021/11/22 10:07:16;;;;;;;2.83;1.00;;;9.80;99.90;;;;;;5065615;28;20205;-59
2021/11/22 10:09:47;;;;;;;1.13;0.97;;;9.70;99.90;;;;;;5073579;28;20588;-59
2021/11/22 10:12:24;;;;;;;1.90;0.60;;;10.10;99.90;;;;;;5074577;28;20875;-58
2021/11/22 10:14:57;;;;;;;1.13;0.90;;;9.90;99.90;;;;;;5076769;28;20201;-58
2021/11/22 10:17:30;;;;;;;2.27;0.80;;;9.20;99.90;;;;;;5074430;28;20223;-60
2021/11/22 10:20:09;;;;;;;4.43;1.30;;;9.00;99.90;;;;;;5074050;28;20458;-58
2021/11/22 10:22:53;;;;;;;2.07;1.10;;;9.70;99.90;;;;;;5073919;28;20222;-59
2021/11/22 10:25:30;;;;;;;1.90;0.93;;;9.60;99.90;;;;;;5076647;28;20204;-57
2021/11/22 10:28:03;;;;;;;6.50;1.30;;;9.60;99.90;;;;;;5082943;28;21193;-59
2021/11/22 10:30:32;;;;;;;2.60;1.10;;;9.50;99.90;;;;;;5081535;28;20196;-58
2021/11/22 10:33:01;;;;;;;2.80;1.07;;;9.70;99.90;;;;;;5072857;28;20243;-58
2021/11/22 10:35:32;;;;;;;2.13;0.87;;;9.80;99.90;;;;;;5080009;28;20212;-57
2021/11/22 10:38:06;;;;;;;2.93;0.97;;;9.60;99.90;;;;;;5072646;28;20568;-56
2021/11/22 10:40:37;;;;;;;5.33;1.27;;;9.60;99.90;;;;;;5074113;28;20201;-52
2021/11/22 10:43:05;;;;;;;3.00;1.00;;;9.40;99.90;;;;;;5071802;28;20210;-51
2021/11/22 10:45:36;;;;;;;2.13;1.00;;;9.60;99.90;;;;;;5074221;28;20936;-54
2021/11/22 10:48:20;;;;;;;5.80;1.10;;;9.90;99.90;;;;;;5080530;28;20285;-53
2021/11/22 10:50:52;;;;;;;2.07;1.00;;;9.80;99.90;;;;;;5070803;28;20205;-54
2021/11/22 10:53:41;;;;;;;5.67;1.00;;;10.00;99.90;;;;;;5069266;28;20241;-54
2021/11/22 10:56:14;;;;;;;4.40;1.20;;;9.80;99.90;;;;;;5079363;28;20259;-54
2021/11/22 10:59:30;;;;;;;1.63;0.80;;;9.90;99.90;;;;;;5079036;28;20700;-53
2021/11/22 11:01:57;;;;;;;1.07;0.87;;;10.20;99.90;;;;;;5062951;28;20215;-53
2021/11/22 11:04:26;;;;;;;3.67;0.93;;;10.30;99.90;;;;;;5081549;28;20215;-54
2021/11/22 11:06:53;;;;;;;3.07;1.00;;;10.20;99.90;;;;;;5082306;28;20233;-53
2021/11/22 11:09:35;;;;;;;5.23;1.27;;;10.30;99.90;;;;;;5082202;28;20243;-54
2021/11/22 11:12:02;;;;;;;5.53;1.13;;;10.40;99.90;;;;;;5074786;28;20205;-52
2021/11/22 11:14:30;;;;;;;1.40;1.07;;;10.40;99.90;;;;;;5080638;28;20228;-52
2021/11/22 11:17:25;;;;;;;2.80;0.90;;;10.30;99.90;;;;;;5082240;28;20644;-53
2021/11/22 11:19:55;;;;;;;1.27;0.80;;;10.70;99.90;;;;;;5069586;28;20281;-54
2021/11/22 11:22:27;;;;;;;2.87;0.83;;;10.60;99.90;;;;;;5070504;28;20354;-52
2021/11/22 11:24:57;;;;;;;3.00;0.93;;;10.90;99.90;;;;;;5082919;28;20222;-52
2021/11/22 11:27:33;;;;;;;5.30;1.50;;;11.40;99.90;;;;;;5073750;28;20676;-52
2021/11/22 11:30:00;;;;;;;2.43;0.80;;;11.70;99.90;;;;;;5073605;28;20252;-51
2021/11/22 11:32:29;;;;;;;1.90;0.77;;;11.80;99.90;;;;;;5062956;28;20211;-50
2021/11/22 11:34:56;;;;;;;3.63;1.10;;;12.30;99.90;;;;;;5079876;28;20263;-52
2021/11/22 11:37:47;;;;;;;5.13;0.97;;;12.40;99.90;;;;;;5081889;28;20196;-51
2021/11/22 11:40:24;;;;;;;2.67;0.90;;;12.10;99.90;;;;;;5079484;28;20249;-51
2021/11/22 11:43:25;;;;;;;2.90;0.80;;;12.40;99.90;;;;;;5080992;28;20227;-51
2021/11/22 11:45:57;;;;;;;2.33;0.80;;;12.40;99.90;;;;;;5079770;28;20264;-51
2021/11/22 11:48:55;;;;;;;2.00;0.90;;;12.70;99.90;;;;;;5079126;28;20278;-52
2021/11/22 11:51:35;;;;;;;2.37;0.90;;;12.40;99.90;;;;;;5069890;28;20200;-52
2021/11/22 11:54:22;;;;;;;1.73;0.80;;;12.10;99.90;;;;;;5079625;28;20239;-53
2021/11/22 11:56:54;;;;;;;3.10;0.80;;;11.80;99.90;;;;;;5078329;28;20205;-53
2021/11/22 11:59:41;;;;;;;3.27;1.00;;;11.90;99.90;;;;;;5080053;28;20197;-52
2021/11/22 12:02:36;;;;;;;1.77;0.90;;;11.60;99.90;;;;;;5081192;28;20209;-51
2021/11/22 12:05:08;;;;;;;1.40;0.80;;;11.20;99.90;;;;;;5070806;28;20207;-51
2021/11/22 12:07:48;;;;;;;1.47;0.70;;;11.10;99.90;;;;;;5080487;28;20642;-51
2021/11/22 12:10:23;;;;;;;2.60;0.70;;;11.10;99.90;;;;;;5070006;28;20293;-50
2021/11/22 12:13:04;;;;;;;2.50;0.80;;;11.50;99.90;;;;;;5075306;28;20206;-51
2021/11/22 12:15:37;;;;;;;1.43;0.73;;;11.40;99.90;;;;;;5077378;28;20203;-52
2021/11/22 12:18:38;;;;;;;1.83;0.70;;;11.70;99.90;;;;;;5078859;28;20223;-51
2021/11/22 12:21:23;;;;;;;2.53;0.80;;;11.80;99.90;;;;;;5079001;28;20262;-51
2021/11/22 12:23:54;;;;;;;1.13;0.70;;;11.50;99.90;;;;;;5067153;28;20199;-51
2021/11/22 12:26:36;;;;;;;2.77;0.80;;;11.90;99.90;;;;;;5077290;28;20198;-52
2021/11/22 12:29:05;;;;;;;1.33;0.70;;;12.00;99.90;;;;;;5078947;28;20221;-51
2021/11/22 12:31:40;;;;;;;2.60;0.80;;;12.00;99.90;;;;;;5076896;28;20344;-52
2021/11/22 12:34:33;;;;;;;3.07;1.00;;;12.50;99.90;;;;;;5066789;28;20210;-51
2021/11/22 12:36:59;;;;;;;4.10;1.00;;;13.10;99.90;;;;;;5067894;28;20293;-51
2021/11/22 12:39:26;;;;;;;2.17;0.87;;;13.30;99.90;;;;;;5079024;28;20625;-52
2021/11/22 12:42:13;;;;;;;1.43;0.83;;;13.20;99.90;;;;;;5077888;28;20208;-51
2021/11/22 12:44:40;;;;;;;2.77;0.90;;;12.90;99.90;;;;;;5078041;28;20265;-51
2021/11/22 12:47:11;;;;;;;3.77;0.83;;;12.50;99.90;;;;;;5077858;28;20193;-51
2021/11/22 12:49:44;;;;;;;1.57;0.97;;;12.40;99.90;;;;;;5075018;28;20719;-51
2021/11/22 12:52:17;;;;;;;2.17;0.90;;;11.80;99.90;;;;;;5074826;28;20196;-50
2021/11/22 12:54:52;;;;;;;1.97;0.80;;;12.20;99.90;;;;;;5080105;28;20587;-51
2021/11/22 12:57:26;;;;;;;0.60;0.60;;;12.10;99.90;;;;;;5078612;28;20226;-52
2021/11/22 13:00:12;;;;;;;1.93;0.70;;;12.00;99.90;;;;;;5079040;28;20258;-51
2021/11/22 13:02:40;;;;;;;1.27;0.80;;;12.10;99.90;;;;;;5079322;28;20211;-51
2021/11/22 13:05:41;;;;;;;1.93;1.00;;;11.70;99.90;;;;;;5079361;28;20212;-51
2021/11/22 13:08:29;;;;;;;0.63;0.50;;;11.30;99.90;;;;;;5078363;28;20195;-52
2021/11/22 13:11:01;;;;;;;6.30;1.00;;;11.60;99.90;;;;;;5063576;28;20789;-52